1MI7 weather

MidMichigan Health Park Heliport
Mt Pleasant, Michigan, United States

Public forecast

Using degrees Fahrenheit for public forecast. Weather courtesy of forecast.io.

METAR (pilot weather report)

Closest report is Mount Pleasant Municipal Airport, 0.7 nm (1.3 km) NE. Retrieved 2019/09/19 18:36 UTC (0 seconds ago):

KMOP 191836Z AUTO 23004KT 10SM CLR 26/13 A3011 RMK AO2 T02630132

TAF (pilot weather forecast)

Closest forecast is MBS International Airport, 29.6 nm (54.8 km) E. Retrieved 2019/09/19 18:22 UTC (0 seconds ago):

TAF KMBS 191720Z 1918/2018 17007KT P6SM SCT250 FM200000 16004KT P6SM BKN150 FM201400 20006KT P6SM SCT050 BKN250